Time;durP1;ratioP1;P1;durP2;ratioP2;P2;SDS_P1;SDS_P2;PMS_P1;PMS_P2;Temp;Humidity;BMP_temperature;BMP_pressure;BME280_temperature;BME280_humidity;BME280_pressure;Samples;Min_cycle;Max_cycle;Signal;HPM_P1;HPM_P2
2022/08/24 00:00:57;;;;;;;10.77;4.90;;;24.10;65.60;;;;;;5089968;28;20024;-65
2022/08/24 00:03:23;;;;;;;8.07;4.10;;;24.10;65.70;;;;;;5055123;28;20029;-64
2022/08/24 00:05:49;;;;;;;9.48;4.75;;;24.10;65.70;;;;;;5088535;28;20092;-64
2022/08/24 00:08:17;;;;;;;9.85;4.82;;;24.10;65.80;;;;;;5084825;28;20427;-64
2022/08/24 00:10:43;;;;;;;8.35;4.82;;;24.10;65.90;;;;;;5087739;28;20045;-64
2022/08/24 00:13:09;;;;;;;9.18;4.95;;;24.00;66.00;;;;;;5073721;28;20040;-63
2022/08/24 00:15:35;;;;;;;9.27;5.30;;;24.00;66.20;;;;;;5073949;28;20349;-64
2022/08/24 00:18:01;;;;;;;10.75;5.65;;;24.00;66.30;;;;;;5090166;28;20051;-64
2022/08/24 00:20:26;;;;;;;10.95;5.68;;;24.00;66.50;;;;;;5096507;28;20360;-64
2022/08/24 00:22:52;;;;;;;9.07;5.65;;;24.00;66.60;;;;;;5095494;28;20032;-64
2022/08/24 00:25:19;;;;;;;8.90;5.00;;;23.90;66.70;;;;;;5085232;28;20119;-64
2022/08/24 00:27:45;;;;;;;10.05;5.30;;;23.90;66.80;;;;;;5095487;28;20456;-64
2022/08/24 00:30:14;;;;;;;9.43;5.57;;;23.90;67.00;;;;;;5096981;28;20028;-64
2022/08/24 00:32:41;;;;;;;9.85;5.45;;;23.90;67.00;;;;;;5078299;28;20369;-64
2022/08/24 00:35:08;;;;;;;10.55;5.53;;;23.90;67.10;;;;;;5074100;28;20024;-64
2022/08/24 00:37:35;;;;;;;8.40;5.13;;;23.90;67.20;;;;;;5085244;28;20354;-64
2022/08/24 00:40:03;;;;;;;9.50;5.43;;;23.90;67.20;;;;;;5092589;28;20017;-64
2022/08/24 00:42:28;;;;;;;8.02;5.10;;;23.90;67.30;;;;;;5078043;28;20161;-64
2022/08/24 00:44:54;;;;;;;10.93;5.47;;;23.80;67.40;;;;;;5084492;28;20181;-64
2022/08/24 00:47:26;;;;;;;10.68;5.82;;;23.80;67.50;;;;;;5095328;28;20466;-64
2022/08/24 00:50:08;;;;;;;9.40;5.70;;;23.80;67.60;;;;;;5091159;28;20032;-64
2022/08/24 00:52:40;;;;;;;9.65;5.63;;;23.80;67.70;;;;;;5077300;28;20043;-64
2022/08/24 00:55:16;;;;;;;8.60;5.57;;;23.80;67.80;;;;;;5088400;28;20024;-64
2022/08/24 00:57:46;;;;;;;9.25;5.88;;;23.70;67.80;;;;;;5094801;28;20028;-64
2022/08/24 01:00:20;;;;;;;8.77;5.10;;;23.70;67.80;;;;;;5077997;28;20031;-64
2022/08/24 01:02:51;;;;;;;9.50;5.65;;;23.70;67.90;;;;;;5095190;28;20432;-65
2022/08/24 01:05:18;;;;;;;10.80;6.05;;;23.70;68.00;;;;;;5071280;28;20077;-64
2022/08/24 01:07:45;;;;;;;9.55;5.85;;;23.70;68.00;;;;;;5068809;28;20032;-64
2022/08/24 01:10:16;;;;;;;9.40;5.72;;;23.60;68.00;;;;;;5075107;28;20043;-64
2022/08/24 01:12:47;;;;;;;9.40;5.93;;;23.60;68.10;;;;;;5077447;28;20036;-64
2022/08/24 01:15:15;;;;;;;8.48;5.65;;;23.60;68.10;;;;;;5072453;28;20463;-64
2022/08/24 01:20:25;;;;;;;8.25;5.78;;;23.60;68.20;;;;;;5094654;28;20032;-64
2022/08/24 01:23:12;;;;;;;8.70;5.68;;;23.50;68.20;;;;;;5061423;28;20446;-64
2022/08/24 01:25:41;;;;;;;9.45;5.80;;;23.50;68.30;;;;;;5077302;28;20053;-64
2022/08/24 01:28:12;;;;;;;8.63;5.80;;;23.50;68.40;;;;;;5093014;28;20024;-64
2022/08/24 01:30:38;;;;;;;9.00;5.60;;;23.50;68.50;;;;;;5092052;28;20110;-63
2022/08/24 01:33:06;;;;;;;8.95;5.85;;;23.50;68.60;;;;;;5094712;28;20377;-64
2022/08/24 01:35:35;;;;;;;9.38;6.15;;;23.40;68.60;;;;;;5094105;28;20028;-64
2022/08/24 01:38:04;;;;;;;9.48;6.20;;;23.40;68.70;;;;;;5067336;28;20520;-64
2022/08/24 01:40:43;;;;;;;8.55;5.82;;;23.40;68.70;;;;;;5076721;28;20031;-64
2022/08/24 01:43:11;;;;;;;8.85;5.93;;;23.40;68.80;;;;;;5087218;28;20064;-64
2022/08/24 01:45:37;;;;;;;9.23;5.85;;;23.40;68.80;;;;;;5069635;28;20024;-64
2022/08/24 01:48:04;;;;;;;8.43;5.32;;;23.40;68.90;;;;;;5063137;28;20441;-64
2022/08/24 01:50:30;;;;;;;9.35;5.53;;;23.40;68.90;;;;;;5076808;28;20020;-63
2022/08/24 01:53:00;;;;;;;9.02;5.55;;;23.40;68.90;;;;;;5076718;28;20034;-64
2022/08/24 01:55:26;;;;;;;10.25;5.97;;;23.30;69.00;;;;;;5067302;28;20120;-64
2022/08/24 01:57:52;;;;;;;9.70;6.07;;;23.30;69.00;;;;;;5075738;28;20032;-64
2022/08/24 02:00:18;;;;;;;12.55;5.82;;;23.30;69.10;;;;;;5075814;28;20174;-64
2022/08/24 02:02:44;;;;;;;10.25;5.88;;;23.30;69.20;;;;;;5077255;28;20098;-64
2022/08/24 02:05:12;;;;;;;10.07;5.68;;;23.30;69.20;;;;;;5075251;28;20058;-64
2022/08/24 02:07:38;;;;;;;8.05;5.18;;;23.30;69.20;;;;;;5049533;28;20056;-64
2022/08/24 02:10:09;;;;;;;9.32;6.18;;;23.20;69.20;;;;;;5074814;28;20075;-64
2022/08/24 02:12:39;;;;;;;8.88;5.47;;;23.20;69.30;;;;;;5094191;28;20036;-64
2022/08/24 02:15:07;;;;;;;8.48;5.75;;;23.20;69.40;;;;;;5083156;28;20049;-64
2022/08/24 02:17:34;;;;;;;9.20;6.13;;;23.20;69.50;;;;;;5075322;28;20020;-66
2022/08/24 02:20:01;;;;;;;10.80;6.22;;;23.20;69.50;;;;;;5075548;28;20039;-64
2022/08/24 02:22:27;;;;;;;9.63;5.93;;;23.10;69.50;;;;;;5076830;28;20027;-64
2022/08/24 02:24:53;;;;;;;8.93;5.63;;;23.10;69.60;;;;;;5074067;28;20020;-64
2022/08/24 02:27:19;;;;;;;8.02;6.15;;;23.10;69.70;;;;;;5075905;28;20053;-64
2022/08/24 02:29:47;;;;;;;10.60;5.97;;;23.10;69.70;;;;;;5076687;28;20016;-64
2022/08/24 02:32:13;;;;;;;10.27;6.40;;;23.00;69.70;;;;;;5062976;28;20161;-64
2022/08/24 02:34:39;;;;;;;7.70;5.47;;;23.00;69.80;;;;;;5092926;28;20085;-64
2022/08/24 02:37:04;;;;;;;8.90;5.95;;;23.00;69.90;;;;;;5089147;28;20463;-64
2022/08/24 02:39:31;;;;;;;9.45;6.00;;;23.00;70.00;;;;;;5076828;28;20451;-64
2022/08/24 02:41:58;;;;;;;11.63;6.68;;;23.00;70.00;;;;;;5075481;28;20028;-63
2022/08/24 02:44:24;;;;;;;8.30;5.80;;;23.00;70.10;;;;;;5076460;28;20030;-63
2022/08/24 02:46:50;;;;;;;9.13;6.28;;;22.90;70.10;;;;;;5071904;28;20058;-63
2022/08/24 02:49:18;;;;;;;9.27;6.30;;;22.90;70.10;;;;;;5071262;28;20028;-63
2022/08/24 02:51:46;;;;;;;10.10;6.13;;;22.90;70.20;;;;;;5082862;28;20437;-63
2022/08/24 02:54:16;;;;;;;8.60;5.68;;;22.90;70.30;;;;;;5076624;28;20016;-63
2022/08/24 02:56:43;;;;;;;8.45;5.80;;;22.90;70.40;;;;;;5073682;28;20089;-63
2022/08/24 02:59:10;;;;;;;8.73;6.38;;;22.90;70.40;;;;;;5064952;28;20028;-63
2022/08/24 03:01:36;;;;;;;8.88;5.90;;;22.80;70.40;;;;;;5069465;28;20346;-63
2022/08/24 03:04:02;;;;;;;9.52;6.25;;;22.80;70.50;;;;;;5076336;28;20039;-63
2022/08/24 03:06:28;;;;;;;9.82;6.55;;;22.80;70.60;;;;;;5073027;28;20035;-63
2022/08/24 03:08:55;;;;;;;11.15;6.38;;;22.80;70.60;;;;;;5064474;28;20058;-63
2022/08/24 03:11:21;;;;;;;11.57;6.93;;;22.80;70.70;;;;;;5092333;28;20115;-63
2022/08/24 03:13:47;;;;;;;8.68;6.10;;;22.80;70.80;;;;;;5072602;28;20116;-63
2022/08/24 03:16:12;;;;;;;9.90;6.95;;;22.80;70.90;;;;;;5072408;28;20047;-63
2022/08/24 03:18:38;;;;;;;9.75;6.38;;;22.70;70.80;;;;;;5074827;28;20059;-63
2022/08/24 03:21:04;;;;;;;10.05;6.95;;;22.70;70.90;;;;;;5075112;28;20432;-63
2022/08/24 03:23:34;;;;;;;9.23;6.65;;;22.70;70.90;;;;;;5074864;28;20049;-63
2022/08/24 03:26:01;;;;;;;10.43;7.68;;;22.70;70.90;;;;;;5066851;28;20020;-63
2022/08/24 03:28:27;;;;;;;11.65;6.60;;;22.70;70.90;;;;;;5063903;28;20405;-63
2022/08/24 03:30:54;;;;;;;9.38;7.10;;;22.70;70.90;;;;;;5073156;28;20890;-63
2022/08/24 03:33:19;;;;;;;11.45;7.53;;;22.70;71.00;;;;;;5061991;28;20494;-63
2022/08/24 03:35:46;;;;;;;9.77;7.07;;;22.60;71.00;;;;;;5072622;28;20020;-63
2022/08/24 03:38:14;;;;;;;11.07;7.82;;;22.70;71.10;;;;;;5070067;28;20035;-63
2022/08/24 03:40:40;;;;;;;10.45;8.02;;;22.60;71.20;;;;;;5059370;28;20047;-63
2022/08/24 03:43:07;;;;;;;12.68;8.02;;;22.60;71.30;;;;;;5074680;28;20158;-63
2022/08/24 03:45:33;;;;;;;11.10;7.40;;;22.60;71.40;;;;;;5075092;28;20028;-62
2022/08/24 03:47:58;;;;;;;12.32;7.70;;;22.60;71.40;;;;;;5068822;28;20052;-63
2022/08/24 03:50:25;;;;;;;10.38;8.13;;;22.50;71.40;;;;;;5068781;28;20028;-63
2022/08/24 03:52:52;;;;;;;11.00;7.55;;;22.50;71.40;;;;;;5067124;28;20445;-63
2022/08/24 03:55:19;;;;;;;10.43;8.30;;;22.50;71.40;;;;;;5078988;28;20020;-63
2022/08/24 03:57:45;;;;;;;8.95;6.82;;;22.50;71.50;;;;;;5067884;28;20023;-63
2022/08/24 04:00:12;;;;;;;10.85;7.70;;;22.50;71.50;;;;;;5079558;28;20032;-63
2022/08/24 04:02:43;;;;;;;10.98;8.00;;;22.50;71.60;;;;;;5050866;28;20125;-63
2022/08/24 04:05:12;;;;;;;9.73;7.78;;;22.50;71.70;;;;;;5077081;28;20032;-63
2022/08/24 04:07:38;;;;;;;10.88;8.07;;;22.50;71.70;;;;;;5066789;28;20377;-63
2022/08/24 04:10:04;;;;;;;10.07;7.80;;;22.50;71.70;;;;;;5076288;28;20040;-63
2022/08/24 04:12:30;;;;;;;10.93;8.05;;;22.40;71.70;;;;;;5078351;28;20082;-63
2022/08/24 04:14:55;;;;;;;10.90;7.93;;;22.40;71.70;;;;;;5062745;28;20028;-63
2022/08/24 04:17:22;;;;;;;10.07;7.53;;;22.50;71.70;;;;;;5070248;28;20399;-63
2022/08/24 04:20:07;;;;;;;13.35;8.05;;;22.50;71.80;;;;;;5071842;28;20028;-63
2022/08/24 04:22:35;;;;;;;10.73;7.90;;;22.50;71.80;;;;;;5065302;28;20024;-63
2022/08/24 04:25:04;;;;;;;10.38;7.78;;;22.40;71.80;;;;;;5070893;28;20443;-63
2022/08/24 04:27:30;;;;;;;12.68;7.68;;;22.40;71.90;;;;;;5091818;28;20024;-63
2022/08/24 04:29:55;;;;;;;12.25;8.98;;;22.40;71.90;;;;;;5070851;28;20368;-63
2022/08/24 04:32:23;;;;;;;11.00;7.90;;;22.40;71.90;;;;;;5072782;28;20111;-64
2022/08/24 04:34:49;;;;;;;10.40;7.90;;;22.30;71.90;;;;;;5070628;28;20040;-64
2022/08/24 04:37:16;;;;;;;11.20;7.38;;;22.30;72.00;;;;;;5080414;28;20016;-63
2022/08/24 04:39:42;;;;;;;12.00;8.00;;;22.30;71.90;;;;;;5069700;28;20023;-63
2022/08/24 04:42:16;;;;;;;11.32;8.45;;;22.30;72.00;;;;;;5068280;28;20326;-63
2022/08/24 04:44:43;;;;;;;11.70;8.52;;;22.30;72.00;;;;;;5073700;28;20039;-63
2022/08/24 04:47:09;;;;;;;11.98;8.75;;;22.30;72.00;;;;;;5079292;28;20376;-63
2022/08/24 04:49:37;;;;;;;12.77;8.60;;;22.30;72.10;;;;;;5068605;28;20063;-63
2022/08/24 04:52:03;;;;;;;11.23;8.63;;;22.30;72.10;;;;;;5076818;28;20049;-63
2022/08/24 04:54:31;;;;;;;11.10;7.93;;;22.30;72.10;;;;;;5076065;28;20021;-63
2022/08/24 04:57:19;;;;;;;12.30;8.02;;;22.30;72.20;;;;;;5072478;28;20119;-63
2022/08/24 04:59:46;;;;;;;10.82;8.45;;;22.30;72.20;;;;;;5067200;28;20425;-63
2022/08/24 05:02:12;;;;;;;11.70;8.20;;;22.20;72.20;;;;;;5061199;28;20036;-63
2022/08/24 05:04:37;;;;;;;11.98;8.38;;;22.30;72.30;;;;;;5077043;28;20020;-63
2022/08/24 05:07:04;;;;;;;10.02;7.90;;;22.30;72.40;;;;;;5085960;28;20031;-64
2022/08/24 05:09:30;;;;;;;13.00;8.88;;;22.30;72.40;;;;;;5065539;28;20027;-64
2022/08/24 05:11:56;;;;;;;12.70;8.10;;;22.30;72.40;;;;;;5058625;28;20048;-64
2022/08/24 05:14:26;;;;;;;11.98;7.95;;;22.30;72.40;;;;;;5075585;28;20093;-64
2022/08/24 05:16:52;;;;;;;9.98;7.75;;;22.30;72.40;;;;;;5076228;28;20459;-64
2022/08/24 05:19:17;;;;;;;11.13;8.15;;;22.30;72.40;;;;;;5093278;28;20024;-64
2022/08/24 05:21:43;;;;;;;9.80;7.82;;;22.30;72.40;;;;;;5096228;28;20032;-64
2022/08/24 05:24:09;;;;;;;11.95;8.57;;;22.30;72.40;;;;;;5068464;28;20050;-64
2022/08/24 05:26:35;;;;;;;11.50;8.45;;;22.30;72.40;;;;;;5073127;28;20040;-64
2022/08/24 05:29:01;;;;;;;12.60;8.88;;;22.30;72.40;;;;;;5077609;28;20036;-65
2022/08/24 05:31:42;;;;;;;12.63;9.13;;;22.40;72.50;;;;;;5078645;28;20027;-64
2022/08/24 05:34:08;;;;;;;12.07;8.27;;;22.40;72.50;;;;;;5076388;28;20040;-64
2022/08/24 05:36:39;;;;;;;10.55;8.32;;;22.40;72.50;;;;;;5076027;28;20016;-64
2022/08/24 05:39:08;;;;;;;10.98;8.13;;;22.40;72.50;;;;;;5058637;28;20020;-66
2022/08/24 05:41:36;;;;;;;11.98;9.30;;;22.40;72.60;;;;;;5070584;28;20453;-64
2022/08/24 05:44:13;;;;;;;14.25;9.35;;;22.50;72.60;;;;;;5075969;28;20318;-65
2022/08/24 05:46:39;;;;;;;12.18;9.93;;;22.50;72.70;;;;;;5072931;28;20070;-64
2022/08/24 05:49:07;;;;;;;14.20;10.48;;;22.50;72.60;;;;;;5067196;28;20020;-64
2022/08/24 05:51:34;;;;;;;17.58;11.70;;;22.60;72.60;;;;;;5075753;28;20020;-64
2022/08/24 05:54:05;;;;;;;17.60;14.10;;;22.70;72.70;;;;;;5075904;28;20019;-64
2022/08/24 05:57:03;;;;;;;17.80;13.77;;;22.70;72.50;;;;;;5076678;28;20042;-64
2022/08/24 05:59:33;;;;;;;18.83;12.95;;;22.80;72.40;;;;;;5060019;28;20107;-64
2022/08/24 06:02:02;;;;;;;15.65;11.60;;;22.80;72.20;;;;;;5077365;28;20028;-64
2022/08/24 06:04:28;;;;;;;15.63;12.18;;;22.90;72.10;;;;;;5091446;28;20016;-64
2022/08/24 06:06:54;;;;;;;17.48;12.00;;;23.00;72.00;;;;;;5076534;28;20028;-64
2022/08/24 06:09:20;;;;;;;17.08;11.85;;;23.10;71.90;;;;;;5093592;28;20034;-64
2022/08/24 06:11:47;;;;;;;17.33;13.13;;;23.10;71.90;;;;;;5076979;28;20044;-64
2022/08/24 06:14:17;;;;;;;20.98;12.77;;;23.20;71.70;;;;;;5065889;28;20096;-64
2022/08/24 06:16:51;;;;;;;16.90;12.75;;;23.70;71.00;;;;;;5074570;28;20016;-65
2022/08/24 06:19:18;;;;;;;15.80;12.85;;;24.70;68.80;;;;;;5072674;28;20032;-65
2022/08/24 06:21:46;;;;;;;15.32;11.93;;;25.60;66.60;;;;;;5051371;28;20021;-65
2022/08/24 06:24:17;;;;;;;19.13;12.20;;;26.30;64.90;;;;;;5059346;28;20060;-65
2022/08/24 06:29:32;;;;;;;17.52;13.15;;;26.90;63.20;;;;;;5075378;28;20048;-66
2022/08/24 06:32:08;;;;;;;17.85;13.30;;;26.80;63.30;;;;;;5061249;28;20345;-65
2022/08/24 06:34:35;;;;;;;18.30;14.13;;;26.70;63.60;;;;;;5073443;28;20131;-65
2022/08/24 06:37:00;;;;;;;16.98;13.60;;;26.50;63.70;;;;;;5094969;28;20020;-66
2022/08/24 06:39:26;;;;;;;18.50;13.82;;;26.50;63.80;;;;;;5094292;28;20036;-65
2022/08/24 06:41:54;;;;;;;15.85;12.43;;;26.40;63.70;;;;;;5061332;28;20032;-65
2022/08/24 06:44:28;;;;;;;16.00;13.63;;;26.30;63.80;;;;;;5082337;28;20040;-65
2022/08/24 06:47:02;;;;;;;17.20;13.68;;;26.30;63.80;;;;;;5066950;28;20024;-65
2022/08/24 06:49:28;;;;;;;15.57;12.63;;;26.30;63.60;;;;;;5073503;28;20020;-65
2022/08/24 06:51:54;;;;;;;17.52;13.02;;;26.40;63.30;;;;;;5081874;28;20107;-65
2022/08/24 06:54:19;;;;;;;14.13;11.95;;;26.50;63.10;;;;;;5073727;28;20107;-65
2022/08/24 06:56:46;;;;;;;15.38;12.48;;;26.60;62.90;;;;;;5054373;28;20019;-65
2022/08/24 06:59:12;;;;;;;17.73;12.90;;;26.60;62.40;;;;;;5067468;28;20024;-64
2022/08/24 07:01:37;;;;;;;21.15;12.88;;;26.80;62.20;;;;;;5088915;28;20028;-65
2022/08/24 07:04:03;;;;;;;15.77;13.18;;;26.90;62.00;;;;;;5074886;28;20074;-65
2022/08/24 07:06:48;;;;;;;15.43;12.82;;;27.00;61.70;;;;;;5091737;28;20039;-64
2022/08/24 07:09:15;;;;;;;15.48;11.45;;;27.10;61.40;;;;;;5072428;28;20049;-64
2022/08/24 07:11:41;;;;;;;14.57;11.32;;;27.20;61.00;;;;;;5068647;28;20033;-65
2022/08/24 07:14:07;;;;;;;15.80;12.07;;;27.30;60.70;;;;;;5086485;28;20330;-64
2022/08/24 07:16:33;;;;;;;15.52;12.95;;;27.50;60.30;;;;;;5069159;28;20487;-64
2022/08/24 07:19:03;;;;;;;14.73;11.25;;;27.60;60.00;;;;;;5069858;28;20025;-65
2022/08/24 07:21:30;;;;;;;15.85;13.18;;;27.60;59.60;;;;;;5074340;28;20497;-65
2022/08/24 07:23:58;;;;;;;14.32;10.63;;;27.70;59.40;;;;;;5066483;28;20023;-66
2022/08/24 07:26:27;;;;;;;13.13;10.50;;;27.80;59.10;;;;;;5068185;28;20028;-65
2022/08/24 07:29:04;;;;;;;15.63;10.38;;;27.90;58.90;;;;;;5063507;28;20016;-64
2022/08/24 07:31:38;;;;;;;13.65;10.13;;;28.00;58.60;;;;;;5059843;28;20024;-64
2022/08/24 07:34:12;;;;;;;12.43;10.02;;;28.20;58.40;;;;;;5067177;28;20035;-64
2022/08/24 07:36:41;;;;;;;14.18;10.70;;;28.30;58.10;;;;;;5072130;28;20021;-65
2022/08/24 07:39:08;;;;;;;13.77;10.10;;;28.40;57.70;;;;;;5075069;28;20368;-64
2022/08/24 07:41:40;;;;;;;11.70;9.48;;;28.60;57.60;;;;;;5079184;28;20081;-68
2022/08/24 07:44:07;;;;;;;12.15;9.93;;;28.70;57.40;;;;;;5072438;28;20028;-69
2022/08/24 07:46:33;;;;;;;12.23;9.98;;;28.80;57.10;;;;;;5071825;28;20027;-64
2022/08/24 07:49:01;;;;;;;14.82;9.32;;;28.90;57.00;;;;;;5074582;28;20456;-64
2022/08/24 07:51:27;;;;;;;16.73;10.10;;;29.00;56.90;;;;;;5058499;28;20028;-64
2022/08/24 07:53:53;;;;;;;12.55;10.05;;;29.10;56.70;;;;;;5075735;28;20494;-63
2022/08/24 07:56:20;;;;;;;13.50;9.27;;;29.20;56.30;;;;;;5079058;28;20020;-68
2022/08/24 07:58:47;;;;;;;15.52;9.32;;;29.30;56.00;;;;;;5071126;28;20506;-70
2022/08/24 08:01:14;;;;;;;12.98;8.82;;;29.40;55.90;;;;;;5073443;28;20078;-68
2022/08/24 08:03:40;;;;;;;11.45;8.43;;;29.50;55.50;;;;;;5066840;28;20139;-68
2022/08/24 08:06:08;;;;;;;14.13;8.43;;;29.60;55.10;;;;;;5078645;28;20460;-67
2022/08/24 08:08:36;;;;;;;9.82;6.38;;;29.70;54.50;;;;;;5079013;28;20035;-68
2022/08/24 08:11:02;;;;;;;8.43;5.80;;;29.70;54.30;;;;;;5078100;28;20058;-67
2022/08/24 08:13:29;;;;;;;11.27;6.07;;;29.80;53.80;;;;;;5074567;28;20370;-68
2022/08/24 08:15:55;;;;;;;8.38;5.45;;;29.80;53.50;;;;;;5073301;28;20109;-68
2022/08/24 08:18:21;;;;;;;9.60;4.53;;;29.90;53.10;;;;;;5086977;28;20028;-67
2022/08/24 08:20:48;;;;;;;8.88;4.43;;;29.90;52.90;;;;;;5073753;28;20451;-68
2022/08/24 08:26:15;;;;;;;9.95;4.40;;;30.10;52.30;;;;;;5076346;28;20115;-68
2022/08/24 08:28:54;;;;;;;6.43;3.78;;;30.20;52.00;;;;;;5060993;28;20047;-67
2022/08/24 08:31:20;;;;;;;6.88;3.58;;;30.40;51.60;;;;;;5070679;28;20024;-68
2022/08/24 08:33:46;;;;;;;8.27;3.92;;;30.50;51.10;;;;;;5071691;28;20027;-68
2022/08/24 08:36:16;;;;;;;8.90;3.83;;;30.50;50.60;;;;;;5074239;28;20349;-68
2022/08/24 08:38:47;;;;;;;8.13;3.67;;;30.60;50.20;;;;;;5074589;28;20412;-68
2022/08/24 08:41:20;;;;;;;8.50;4.18;;;30.80;50.20;;;;;;5075511;28;20024;-68
2022/08/24 08:44:05;;;;;;;8.50;3.83;;;30.90;50.10;;;;;;5070630;28;20037;-67
2022/08/24 08:46:59;;;;;;;6.70;3.50;;;30.90;49.80;;;;;;5071159;28;20411;-68
2022/08/24 08:50:06;;;;;;;6.97;2.95;;;31.00;49.50;;;;;;5058671;28;20031;-68
2022/08/24 08:52:47;;;;;;;7.63;3.15;;;31.00;49.50;;;;;;5066729;28;20029;-68
2022/08/24 08:55:40;;;;;;;7.72;3.72;;;31.20;49.50;;;;;;5074898;28;20036;-68
2022/08/24 08:58:29;;;;;;;7.97;3.40;;;31.20;49.20;;;;;;5074178;28;20020;-68
2022/08/24 09:01:34;;;;;;;5.75;3.00;;;31.30;49.00;;;;;;5076328;28;20031;-68
2022/08/24 09:04:21;;;;;;;5.85;2.70;;;31.30;48.50;;;;;;4995185;28;20034;-68
2022/08/24 09:07:24;;;;;;;4.72;2.63;;;31.40;48.40;;;;;;5010609;28;20382;-68
2022/08/24 09:10:18;;;;;;;5.10;2.50;;;31.50;48.40;;;;;;5001295;28;20056;-68
2022/08/24 09:13:06;;;;;;;5.85;2.50;;;31.60;48.00;;;;;;5007950;28;20092;-68
2022/08/24 09:16:16;;;;;;;4.50;2.40;;;31.60;47.80;;;;;;4994722;28;20038;-69
2022/08/24 09:18:53;;;;;;;5.97;2.20;;;31.80;47.80;;;;;;4975889;28;20030;-69
2022/08/24 09:21:43;;;;;;;4.70;2.13;;;31.90;47.70;;;;;;4973355;28;20035;-69
2022/08/24 09:24:19;;;;;;;3.67;1.80;;;32.00;47.40;;;;;;4988202;28;20184;-69
2022/08/24 09:27:12;;;;;;;4.28;1.90;;;32.10;47.00;;;;;;4989850;28;20053;-69
2022/08/24 09:29:55;;;;;;;3.87;1.87;;;32.20;46.60;;;;;;4992157;28;20133;-69
2022/08/24 09:32:58;;;;;;;4.28;1.90;;;32.20;46.40;;;;;;4991721;28;20322;-69
2022/08/24 09:35:36;;;;;;;4.13;1.85;;;32.20;46.00;;;;;;4992172;28;20066;-68
2022/08/24 09:38:44;;;;;;;3.38;1.50;;;32.20;45.70;;;;;;4990413;28;20045;-69
2022/08/24 09:41:16;;;;;;;7.10;1.90;;;32.30;45.60;;;;;;5015177;28;20168;-69
2022/08/24 09:44:02;;;;;;;3.50;1.52;;;32.40;45.50;;;;;;5040024;28;20423;-69
2022/08/24 09:46:41;;;;;;;4.20;1.60;;;32.50;45.00;;;;;;5041942;28;20090;-69
2022/08/24 09:49:43;;;;;;;4.55;1.60;;;32.60;44.90;;;;;;5028421;28;20043;-70
2022/08/24 09:52:17;;;;;;;4.00;1.55;;;32.60;44.70;;;;;;5055245;28;20040;-69
2022/08/24 09:55:03;;;;;;;3.10;1.60;;;32.60;44.60;;;;;;5086958;28;20024;-70
2022/08/24 09:57:57;;;;;;;2.38;1.33;;;32.80;44.70;;;;;;5069413;28;20168;-69
2022/08/24 10:00:44;;;;;;;4.50;2.00;;;32.90;44.20;;;;;;5087794;28;20380;-69
2022/08/24 10:03:13;;;;;;;3.13;1.60;;;32.90;44.00;;;;;;5065282;28;20452;-68
2022/08/24 10:05:47;;;;;;;3.53;1.60;;;33.00;43.70;;;;;;5070121;28;20043;-69
2022/08/24 10:08:19;;;;;;;3.42;1.40;;;32.90;43.30;;;;;;5066353;28;20032;-65
2022/08/24 10:10:57;;;;;;;3.45;1.60;;;33.00;43.60;;;;;;5065658;28;20036;-66
2022/08/24 10:14:12;;;;;;;3.58;1.40;;;33.10;43.30;;;;;;5053241;28;20036;-66
2022/08/24 10:17:12;;;;;;;2.67;1.40;;;33.20;43.20;;;;;;5071510;28;20067;-66
2022/08/24 10:19:50;;;;;;;3.85;1.40;;;33.30;43.00;;;;;;5070546;28;20437;-66
2022/08/24 10:22:53;;;;;;;3.28;1.25;;;33.30;43.00;;;;;;5069557;28;20036;-66
2022/08/24 10:25:28;;;;;;;2.83;1.13;;;33.40;42.50;;;;;;5085928;28;20075;-65
2022/08/24 10:28:14;;;;;;;2.83;0.90;;;33.50;42.50;;;;;;5063204;28;20037;-66
2022/08/24 10:31:06;;;;;;;1.98;1.20;;;33.50;42.00;;;;;;5085593;28;20048;-65
2022/08/24 10:33:58;;;;;;;3.03;1.23;;;33.50;41.80;;;;;;5083475;28;20424;-65
2022/08/24 10:36:35;;;;;;;2.28;1.15;;;33.60;41.70;;;;;;5084962;28;20032;-66
2022/08/24 10:39:41;;;;;;;2.33;1.17;;;33.50;41.40;;;;;;5065728;28;20112;-65
2022/08/24 10:45:34;;;;;;;2.78;1.17;;;33.20;41.60;;;;;;5062538;28;20039;-66
2022/08/24 10:48:06;;;;;;;2.40;1.40;;;33.10;41.90;;;;;;5074408;28;20043;-65
2022/08/24 10:51:08;;;;;;;5.55;1.80;;;33.30;41.90;;;;;;5092257;28;20043;-66
2022/08/24 10:53:34;;;;;;;2.90;1.45;;;33.40;41.90;;;;;;5082317;28;20330;-65
2022/08/24 10:56:16;;;;;;;3.33;1.52;;;33.60;42.00;;;;;;5072462;28;20040;-66
2022/08/24 10:59:01;;;;;;;1.90;1.13;;;33.70;41.70;;;;;;5066839;28;20032;-66
2022/08/24 11:01:27;;;;;;;3.88;1.25;;;33.70;41.60;;;;;;5080438;28;20028;-66
2022/08/24 11:04:07;;;;;;;5.63;1.70;;;33.80;41.80;;;;;;5087899;28;20433;-66
2022/08/24 11:06:43;;;;;;;3.38;1.60;;;33.80;41.80;;;;;;5052930;28;20039;-66
2022/08/24 11:09:15;;;;;;;4.22;1.50;;;33.80;41.80;;;;;;5088728;28;20043;-66
2022/08/24 11:11:46;;;;;;;3.97;1.52;;;33.80;41.70;;;;;;5080686;28;20059;-66
2022/08/24 11:14:28;;;;;;;4.22;1.65;;;33.70;41.30;;;;;;5075462;28;20497;-66
2022/08/24 11:17:17;;;;;;;3.17;1.35;;;33.80;41.60;;;;;;5084646;28;20029;-66
2022/08/24 11:19:43;;;;;;;2.95;1.60;;;33.90;42.10;;;;;;5079721;28;20033;-66
2022/08/24 11:22:29;;;;;;;3.53;1.70;;;33.90;41.40;;;;;;5063492;28;20028;-66
2022/08/24 11:25:06;;;;;;;3.78;1.67;;;34.00;41.30;;;;;;5072630;28;20314;-66
2022/08/24 11:27:39;;;;;;;4.25;1.77;;;34.00;41.40;;;;;;5089572;28;20028;-67
2022/08/24 11:30:07;;;;;;;3.30;1.80;;;34.00;41.20;;;;;;5075649;28;20032;-66
2022/08/24 11:32:53;;;;;;;4.57;1.77;;;33.70;41.40;;;;;;5069819;28;20113;-66
2022/08/24 11:35:36;;;;;;;4.55;1.83;;;33.50;41.70;;;;;;5047201;28;20029;-67
2022/08/24 11:38:22;;;;;;;3.85;1.92;;;33.30;42.00;;;;;;5064045;28;20062;-66
2022/08/24 11:41:06;;;;;;;3.67;1.67;;;33.10;42.50;;;;;;5056738;28;20118;-67
2022/08/24 11:43:31;;;;;;;5.00;2.20;;;32.90;42.60;;;;;;5088008;28;20122;-66
2022/08/24 11:46:16;;;;;;;3.42;1.90;;;32.70;42.80;;;;;;5068990;28;20537;-66
2022/08/24 11:49:04;;;;;;;3.97;1.60;;;32.60;42.90;;;;;;5056135;28;20033;-67
2022/08/24 11:52:07;;;;;;;4.28;1.98;;;32.50;43.20;;;;;;5073031;28;20028;-66
2022/08/24 11:55:01;;;;;;;4.35;2.00;;;32.50;43.40;;;;;;5083453;28;20452;-66
2022/08/24 11:57:39;;;;;;;3.33;1.88;;;32.40;43.60;;;;;;5049390;28;20453;-66
2022/08/24 12:00:14;;;;;;;4.32;2.13;;;32.30;43.80;;;;;;5087497;28;20499;-65
2022/08/24 12:03:10;;;;;;;4.80;2.00;;;32.10;44.10;;;;;;5072556;28;20019;-65
2022/08/24 12:05:57;;;;;;;4.68;2.00;;;32.00;44.60;;;;;;5093726;28;20091;-65
2022/08/24 12:08:43;;;;;;;4.88;2.05;;;32.00;44.50;;;;;;5075896;28;20055;-65
2022/08/24 12:11:32;;;;;;;4.43;2.10;;;31.80;44.50;;;;;;5074833;28;20032;-66
2022/08/24 12:14:26;;;;;;;4.82;2.10;;;31.80;44.90;;;;;;5092343;28;20028;-66
2022/08/24 12:17:01;;;;;;;4.35;1.90;;;31.80;44.60;;;;;;5062140;28;20425;-65
2022/08/24 12:19:32;;;;;;;5.22;1.95;;;31.80;44.50;;;;;;5070670;28;20025;-67
2022/08/24 12:22:02;;;;;;;4.07;1.70;;;31.80;44.70;;;;;;5090430;28;20032;-66
2022/08/24 12:24:28;;;;;;;;;;;31.90;44.70;;;;;;5096821;28;20028;-66
2022/08/24 12:27:07;;;;;;;4.65;1.80;;;31.90;44.60;;;;;;5077459;28;19922;-66
2022/08/24 12:29:51;;;;;;;4.22;2.10;;;32.00;44.50;;;;;;5084670;28;20021;-66
2022/08/24 12:32:36;;;;;;;4.57;1.88;;;32.00;44.30;;;;;;5075063;28;20051;-66
2022/08/24 12:35:23;;;;;;;3.85;2.00;;;32.00;44.00;;;;;;5079357;28;20441;-66
2022/08/24 12:37:57;;;;;;;4.25;1.80;;;32.00;44.00;;;;;;5076823;28;20085;-66
2022/08/24 12:40:32;;;;;;;4.68;1.85;;;31.90;43.90;;;;;;5077782;28;20028;-66
2022/08/24 12:43:20;;;;;;;4.00;2.00;;;31.80;44.00;;;;;;5086356;28;20451;-66
2022/08/24 12:45:46;;;;;;;3.50;1.85;;;31.70;44.10;;;;;;5092246;28;20326;-65
2022/08/24 12:48:32;;;;;;;3.88;2.00;;;31.50;44.30;;;;;;5074162;28;20032;-64
2022/08/24 12:51:14;;;;;;;5.30;1.95;;;31.40;44.60;;;;;;5079354;28;20364;-67
2022/08/24 12:54:20;;;;;;;5.03;2.25;;;31.30;44.70;;;;;;5068550;28;20111;-64
2022/08/24 12:57:23;;;;;;;5.03;2.03;;;31.10;44.80;;;;;;5091182;28;20436;-65
2022/08/24 12:59:53;;;;;;;4.82;1.80;;;31.10;45.20;;;;;;5091124;28;20024;-65
2022/08/24 13:02:19;;;;;;;2.83;1.57;;;31.10;45.30;;;;;;5094373;28;20028;-65
2022/08/24 13:04:51;;;;;;;9.27;1.88;;;31.00;45.20;;;;;;5090665;28;20664;-65
2022/08/24 13:07:23;;;;;;;3.90;1.90;;;31.10;45.30;;;;;;5085699;28;20036;-65
2022/08/24 13:10:07;;;;;;;4.50;1.90;;;31.10;45.10;;;;;;5054432;28;20519;-65
2022/08/24 13:12:44;;;;;;;4.80;2.10;;;31.30;45.00;;;;;;5073527;28;20067;-65
2022/08/24 13:15:24;;;;;;;2.92;1.75;;;31.40;45.10;;;;;;5075423;28;20421;-66
2022/08/24 13:18:07;;;;;;;3.80;1.85;;;31.50;44.80;;;;;;5071733;28;20070;-65
2022/08/24 13:20:42;;;;;;;5.10;1.90;;;31.50;44.70;;;;;;5083441;28;20028;-67
2022/08/24 13:23:10;;;;;;;5.15;2.28;;;31.60;44.70;;;;;;5090080;28;20123;-66